createdAt,value
2018-06-03T00:02:03.452Z,49.07
2018-06-03T00:04:30.956Z,46.03
2018-06-03T00:06:58.422Z,48.47
2018-06-03T00:09:25.912Z,49.07
2018-06-03T00:11:53.369Z,48.10
2018-06-03T00:14:20.864Z,50.90
2018-06-03T00:16:49.097Z,48.83
2018-06-03T00:19:16.559Z,51.60
2018-06-03T00:21:44.307Z,49.40
2018-06-03T00:24:11.781Z,44.97
2018-06-03T00:26:39.244Z,48.70
2018-06-03T00:29:06.874Z,44.43
2018-06-03T00:31:34.381Z,49.97
2018-06-03T00:34:01.853Z,49.07
2018-06-03T00:36:41.926Z,50.57
2018-06-03T00:39:09.397Z,45.60
2018-06-03T00:41:36.860Z,47.77
2018-06-03T00:44:04.453Z,48.40
2018-06-03T00:46:31.917Z,44.13
2018-06-03T00:48:59.382Z,44.60
2018-06-03T00:51:27.854Z,45.10
2018-06-03T00:53:55.324Z,46.77
2018-06-03T00:56:35.525Z,41.67
2018-06-03T00:59:02.997Z,44.97
2018-06-03T01:01:30.468Z,44.03
2018-06-03T01:03:58.143Z,39.53
2018-06-03T01:06:26.540Z,44.53
2018-06-03T01:08:54.029Z,45.80
2018-06-03T01:11:21.513Z,46.57
2018-06-03T01:13:48.987Z,45.27
2018-06-03T01:16:16.484Z,51.63
2018-06-03T01:18:43.958Z,45.00
2018-06-03T01:21:11.425Z,42.20
2018-06-03T01:23:38.900Z,46.10
2018-06-03T01:26:06.375Z,42.97
2018-06-03T01:28:34.608Z,47.63
2018-06-03T01:31:02.319Z,50.43
2018-06-03T01:33:30.548Z,48.37
2018-06-03T01:35:58.026Z,40.83
2018-06-03T01:38:26.350Z,42.80
2018-06-03T01:40:53.809Z,48.40
2018-06-03T01:43:21.277Z,47.27
2018-06-03T01:45:48.783Z,50.77
2018-06-03T01:48:16.247Z,49.27
2018-06-03T01:50:43.713Z,48.63
2018-06-03T01:53:12.113Z,51.20
2018-06-03T01:55:39.578Z,49.23
2018-06-03T01:58:07.036Z,54.80
2018-06-03T02:00:34.550Z,51.60
2018-06-03T02:03:02.098Z,52.27
2018-06-03T02:05:29.762Z,48.87
2018-06-03T02:07:57.373Z,51.50
2018-06-03T02:10:24.834Z,53.97
2018-06-03T02:12:52.316Z,51.37
2018-06-03T02:15:19.854Z,57.63
2018-06-03T02:17:47.317Z,50.20
2018-06-03T02:20:15.025Z,50.80
2018-06-03T02:22:43.250Z,50.70
2018-06-03T02:25:10.710Z,46.63
2018-06-03T02:27:38.184Z,53.07
2018-06-03T02:30:05.654Z,50.33
2018-06-03T02:32:33.117Z,55.90
2018-06-03T02:35:00.782Z,53.57
2018-06-03T02:37:28.246Z,59.13
2018-06-03T02:39:56.485Z,56.00
2018-06-03T02:42:23.977Z,52.60
2018-06-03T02:44:52.215Z,61.13
2018-06-03T02:47:19.693Z,54.60
2018-06-03T02:49:47.192Z,58.33
2018-06-03T02:52:14.656Z,52.90
2018-06-03T02:54:42.113Z,57.67
2018-06-03T02:57:09.818Z,60.00
2018-06-03T02:59:37.284Z,65.57
2018-06-03T03:02:04.838Z,62.20
2018-06-03T03:04:32.481Z,60.00
2018-06-03T03:06:59.952Z,60.13
2018-06-03T03:09:27.409Z,58.60
2018-06-03T03:11:55.076Z,56.90
2018-06-03T03:14:22.629Z,63.80
2018-06-03T03:16:50.098Z,60.80
2018-06-03T03:19:17.848Z,63.53
2018-06-03T03:21:45.314Z,63.30
2018-06-03T03:24:14.289Z,66.37
2018-06-03T03:26:41.929Z,58.47
2018-06-03T03:29:09.404Z,59.67
2018-06-03T03:31:36.886Z,57.60
2018-06-03T03:34:05.272Z,61.90
2018-06-03T03:36:33.499Z,55.30
2018-06-03T03:39:00.962Z,64.63
2018-06-03T03:41:28.649Z,59.67
2018-06-03T03:43:57.617Z,59.80
2018-06-03T03:46:25.094Z,57.77
2018-06-03T03:48:52.568Z,53.77
2018-06-03T03:51:20.804Z,57.33
2018-06-03T03:53:48.485Z,63.37
2018-06-03T03:56:16.032Z,61.27
2018-06-03T03:58:43.496Z,62.63
2018-06-03T04:01:11.133Z,58.20
2018-06-03T04:03:38.612Z,63.60
2018-06-03T04:06:06.074Z,60.70
2018-06-03T04:08:33.574Z,62.17
2018-06-03T04:11:01.793Z,57.93
2018-06-03T04:13:29.465Z,62.97
2018-06-03T04:15:56.938Z,63.30
2018-06-03T04:18:25.174Z,59.17
2018-06-03T04:20:52.804Z,61.43
2018-06-03T04:23:20.282Z,60.17
2018-06-03T04:25:47.746Z,60.00
2018-06-03T04:28:15.225Z,58.80
2018-06-03T04:30:42.693Z,59.30
2018-06-03T04:33:10.925Z,62.60
2018-06-03T04:35:38.632Z,59.77
2018-06-03T04:38:06.098Z,59.20
2018-06-03T04:40:34.328Z,60.60
2018-06-03T04:43:01.810Z,57.63
2018-06-03T04:45:29.315Z,59.40
2018-06-03T04:47:56.786Z,59.63
2018-06-03T04:50:24.410Z,57.13
2018-06-03T04:52:52.636Z,57.97
2018-06-03T04:55:20.100Z,57.30
2018-06-03T04:57:47.776Z,56.33
2018-06-03T05:00:15.252Z,60.57
2018-06-03T05:02:43.496Z,59.47
2018-06-03T05:05:10.977Z,55.93
2018-06-03T05:07:39.216Z,56.83
2018-06-03T05:10:06.690Z,59.63
2018-06-03T05:12:35.054Z,61.73
2018-06-03T05:15:02.520Z,61.80
2018-06-03T05:17:29.985Z,60.10
2018-06-03T05:19:57.471Z,55.53
2018-06-03T05:22:24.938Z,58.13
2018-06-03T05:24:52.413Z,66.07
2018-06-03T05:27:19.889Z,60.57
2018-06-03T05:29:47.355Z,61.17
2018-06-03T05:32:14.818Z,57.90
2018-06-03T05:34:42.405Z,56.33
2018-06-03T05:37:10.641Z,59.90
2018-06-03T05:39:38.113Z,58.73
2018-06-03T05:42:05.773Z,54.43
2018-06-03T05:44:34.011Z,58.53
2018-06-03T05:47:01.460Z,58.53
2018-06-03T05:49:29.167Z,56.03
2018-06-03T05:51:56.637Z,56.10
2018-06-03T05:54:24.885Z,59.30
2018-06-03T05:56:52.559Z,65.57
2018-06-03T05:59:20.025Z,62.63
2018-06-03T06:01:47.499Z,58.13
2018-06-03T06:04:15.736Z,57.00
2018-06-03T06:06:43.205Z,62.20
2018-06-03T06:09:10.865Z,63.30
2018-06-03T06:11:38.352Z,67.13
2018-06-03T06:14:06.584Z,65.93
2018-06-03T06:16:35.737Z,71.10
2018-06-03T06:19:03.224Z,64.87
2018-06-03T06:21:30.692Z,62.33
2018-06-03T06:23:58.364Z,64.10
2018-06-03T06:26:25.829Z,67.10
2018-06-03T06:28:54.068Z,62.87
2018-06-03T06:31:21.715Z,68.70
2018-06-03T06:33:49.221Z,62.50
2018-06-03T06:36:17.452Z,63.77
2018-06-03T06:38:44.952Z,64.80
2018-06-03T06:41:12.413Z,69.33
2018-06-03T06:43:40.657Z,68.87
2018-06-03T06:46:08.197Z,69.80
2018-06-03T06:48:35.669Z,68.23
2018-06-03T06:51:03.141Z,80.27
2018-06-03T06:53:30.630Z,78.73
2018-06-03T06:55:58.885Z,74.40
2018-06-03T06:58:26.349Z,86.90
2018-06-03T07:00:54.760Z,77.67
2018-06-03T07:03:22.221Z,79.93
2018-06-03T07:05:49.875Z,75.37
2018-06-03T07:08:17.393Z,78.50
2018-06-03T07:10:44.864Z,74.37
2018-06-03T07:13:13.164Z,74.40
2018-06-03T07:15:40.594Z,79.27
2018-06-03T07:18:08.052Z,75.63
2018-06-03T07:20:36.285Z,71.40
2018-06-03T07:23:03.781Z,72.97
2018-06-03T07:25:31.237Z,76.27
2018-06-03T07:27:59.505Z,75.43
2018-06-03T07:30:26.969Z,72.77
2018-06-03T07:32:54.645Z,68.43
2018-06-03T07:35:22.878Z,72.80
2018-06-03T07:37:50.345Z,70.20
2018-06-03T07:40:18.043Z,73.80
2018-06-03T07:42:46.269Z,67.13
2018-06-03T07:45:13.732Z,67.70
2018-06-03T07:47:41.429Z,70.03
2018-06-03T07:50:09.661Z,70.43
2018-06-03T07:52:37.129Z,68.03
2018-06-03T07:55:04.732Z,67.13
2018-06-03T07:57:32.956Z,68.03
2018-06-03T08:00:00.438Z,70.40
2018-06-03T08:02:27.930Z,68.50
2018-06-03T08:04:55.394Z,66.30
2018-06-03T08:07:22.866Z,63.60
2018-06-03T08:09:50.553Z,76.27
2018-06-03T08:12:18.018Z,70.37
2018-06-03T08:14:46.298Z,79.10
2018-06-03T08:17:13.793Z,76.43
2018-06-03T08:19:41.274Z,77.10
2018-06-03T08:22:08.788Z,70.80
2018-06-03T08:24:37.123Z,76.57
2018-06-03T08:27:05.973Z,63.67
2018-06-03T08:29:34.690Z,66.80
2018-06-03T08:32:02.157Z,64.77
2018-06-03T08:34:29.866Z,66.90
2018-06-03T08:36:57.363Z,65.33
2018-06-03T08:39:24.854Z,71.77
2018-06-03T08:41:52.328Z,69.50
2018-06-03T08:44:20.573Z,66.63
2018-06-03T08:46:48.037Z,67.10
2018-06-03T08:49:15.705Z,72.43
2018-06-03T08:51:43.170Z,66.40
2018-06-03T08:54:11.401Z,66.80
2018-06-03T08:56:39.097Z,65.40
2018-06-03T08:59:06.737Z,61.30
2018-06-03T09:01:34.311Z,59.60
2018-06-03T09:04:01.973Z,59.37
2018-06-03T09:06:29.452Z,59.93
2018-06-03T09:08:57.747Z,58.87
2018-06-03T09:11:25.426Z,65.47
2018-06-03T09:13:52.901Z,57.73
2018-06-03T09:16:20.371Z,61.33
2018-06-03T09:18:49.369Z,70.80
2018-06-03T09:21:16.828Z,57.47
2018-06-03T09:23:44.306Z,56.77
2018-06-03T09:26:12.581Z,57.70
2018-06-03T09:28:40.822Z,59.70
2018-06-03T09:31:08.288Z,54.63
2018-06-03T09:33:35.959Z,59.97
2018-06-03T09:36:03.424Z,59.40
2018-06-03T09:38:31.656Z,59.50
2018-06-03T09:40:59.325Z,60.03
2018-06-03T09:43:26.797Z,55.23
2018-06-03T09:45:54.291Z,52.20
2018-06-03T09:48:21.778Z,47.27
2018-06-03T09:50:49.261Z,49.63
2018-06-03T09:53:16.737Z,46.50
2018-06-03T09:55:44.212Z,43.00
2018-06-03T09:58:11.773Z,34.40
2018-06-03T10:00:39.238Z,33.23
2018-06-03T10:03:06.957Z,37.77
2018-06-03T10:05:35.208Z,35.60
2018-06-03T10:08:03.497Z,37.93
2018-06-03T10:10:31.172Z,43.03
2018-06-03T10:12:58.657Z,34.70
2018-06-03T10:15:26.879Z,33.10
2018-06-03T10:17:54.356Z,32.00
2018-06-03T10:20:21.838Z,34.17
2018-06-03T10:22:50.073Z,32.90
2018-06-03T10:25:17.595Z,31.93
2018-06-03T10:27:45.061Z,29.33
2018-06-03T10:30:12.593Z,33.00
2018-06-03T10:32:40.077Z,31.77
2018-06-03T10:35:07.560Z,30.70
2018-06-03T10:37:35.240Z,28.10
2018-06-03T10:40:02.732Z,27.87
2018-06-03T10:42:30.198Z,27.90
2018-06-03T10:45:26.438Z,19.50
2018-06-03T10:47:54.972Z,21.90
2018-06-03T10:50:23.397Z,20.40
2018-06-03T10:52:51.816Z,25.00
2018-06-03T10:55:20.212Z,19.90
2018-06-03T10:57:48.742Z,24.23
2018-06-03T11:00:17.369Z,28.40
2018-06-03T11:02:45.805Z,25.70
2018-06-03T11:05:14.841Z,27.37
2018-06-03T11:07:43.341Z,29.00
2018-06-03T11:10:11.746Z,29.03
2018-06-03T11:12:40.168Z,27.20
2018-06-03T11:15:08.652Z,30.80
2018-06-03T11:17:38.410Z,32.90
2018-06-03T11:20:06.900Z,27.97
2018-06-03T11:22:35.398Z,29.10
2018-06-03T11:25:04.348Z,29.27
2018-06-03T11:27:32.837Z,26.10
2018-06-03T11:30:01.277Z,27.37
2018-06-03T11:32:29.682Z,28.77
2018-06-03T11:34:58.183Z,29.00
2018-06-03T11:37:26.626Z,33.33
2018-06-03T11:39:55.045Z,29.60
2018-06-03T11:42:23.587Z,32.47
2018-06-03T11:44:52.021Z,28.27
2018-06-03T11:47:20.445Z,29.60
2018-06-03T11:49:48.845Z,28.80
2018-06-03T11:52:17.297Z,30.93
2018-06-03T11:59:34.334Z,26.80
2018-06-03T12:02:02.741Z,22.13
2018-06-03T12:04:31.154Z,23.47
2018-06-03T12:06:59.923Z,23.27
2018-06-03T12:09:28.417Z,25.33
2018-06-03T12:11:56.836Z,21.73
2018-06-03T12:14:25.401Z,21.63
2018-06-03T12:16:53.881Z,23.70
2018-06-03T12:19:22.281Z,24.03
2018-06-03T12:21:50.710Z,21.90
2018-06-03T12:24:19.268Z,22.47
2018-06-03T12:26:47.809Z,25.53
2018-06-03T12:29:16.274Z,21.63
2018-06-03T12:31:44.720Z,26.63
2018-06-03T12:34:13.175Z,19.70
2018-06-03T12:36:41.591Z,23.33
2018-06-03T12:39:10.242Z,20.40
2018-06-03T12:41:38.941Z,21.77
2018-06-03T12:44:07.385Z,22.83
2018-06-03T12:46:35.801Z,19.67
2018-06-03T12:49:04.301Z,20.03
2018-06-03T12:51:32.764Z,21.50
2018-06-03T12:54:01.252Z,19.40
2018-06-03T12:56:29.682Z,22.30
2018-06-03T12:58:58.081Z,19.90
2018-06-03T13:01:26.599Z,21.07
2018-06-03T13:03:55.021Z,24.63
2018-06-03T13:06:23.452Z,18.90
2018-06-03T13:08:52.637Z,21.73
2018-06-03T13:11:21.298Z,21.70
2018-06-03T13:13:49.721Z,21.07
2018-06-03T13:16:18.291Z,18.07
2018-06-03T13:18:46.717Z,22.80
2018-06-03T13:21:15.168Z,19.13
2018-06-03T13:23:43.640Z,22.00
2018-06-03T13:26:12.046Z,19.03
2018-06-03T13:28:40.457Z,17.60
2018-06-03T13:31:08.576Z,19.63
2018-06-03T13:33:36.992Z,19.40
2018-06-03T13:36:05.833Z,16.13
2018-06-03T13:38:34.258Z,16.70
2018-06-03T13:41:02.809Z,18.10
2018-06-03T13:43:31.294Z,17.80
2018-06-03T13:45:59.681Z,17.90
2018-06-03T13:48:28.137Z,16.67
2018-06-03T13:50:56.524Z,16.93
2018-06-03T13:53:25.011Z,15.60
2018-06-03T13:55:53.436Z,17.10
2018-06-03T13:58:21.572Z,18.10
2018-06-03T14:00:50.033Z,17.70
2018-06-03T14:03:18.450Z,16.13
2018-06-03T14:05:46.875Z,19.37
2018-06-03T14:08:15.302Z,19.03
2018-06-03T14:10:43.753Z,16.17
2018-06-03T14:13:12.196Z,14.83
2018-06-03T14:15:40.324Z,15.30
2018-06-03T14:18:08.795Z,15.80
2018-06-03T14:20:37.223Z,14.97
2018-06-03T14:23:05.881Z,14.93
2018-06-03T14:25:34.291Z,20.20
2018-06-03T14:28:02.367Z,16.73
2018-06-03T14:30:31.141Z,19.47
2018-06-03T14:32:59.565Z,17.77
2018-06-03T14:35:28.019Z,15.53
2018-06-03T14:37:56.669Z,17.10
2018-06-03T14:40:25.157Z,18.20
2018-06-03T14:42:53.577Z,17.27
2018-06-03T14:45:22.229Z,16.43
2018-06-03T14:47:50.639Z,13.80
2018-06-03T14:50:19.048Z,16.43
2018-06-03T14:52:47.767Z,17.67
2018-06-03T14:55:16.195Z,16.20
2018-06-03T14:57:44.631Z,16.87
2018-06-03T15:00:13.157Z,16.77
2018-06-03T15:02:41.570Z,17.30
2018-06-03T15:05:09.981Z,14.83
2018-06-03T15:07:38.686Z,13.40
2018-06-03T15:10:07.127Z,14.13
2018-06-03T15:12:35.541Z,13.40
2018-06-03T15:15:04.223Z,14.77
2018-06-03T15:17:32.760Z,13.80
2018-06-03T15:20:01.188Z,13.63
2018-06-03T15:22:29.652Z,13.67
2018-06-03T15:24:58.064Z,13.30
2018-06-03T15:27:26.466Z,12.13
2018-06-03T15:29:54.962Z,13.97
2018-06-03T15:32:23.398Z,11.00
2018-06-03T15:34:52.037Z,10.83
2018-06-03T15:37:20.510Z,13.23
2018-06-03T15:39:49.033Z,10.67
2018-06-03T15:42:17.512Z,13.17
2018-06-03T15:44:46.041Z,11.80
2018-06-03T15:47:14.490Z,12.13
2018-06-03T15:49:42.937Z,11.00
2018-06-03T15:52:11.397Z,14.70
2018-06-03T15:54:40.094Z,15.10
2018-06-03T15:57:08.645Z,11.60
2018-06-03T15:59:37.109Z,18.00
2018-06-03T16:02:06.348Z,14.97
2018-06-03T16:04:34.762Z,13.10
2018-06-03T16:07:03.231Z,13.77
2018-06-03T16:09:31.648Z,15.43
2018-06-03T16:12:00.045Z,16.37
2018-06-03T16:14:28.474Z,11.07
2018-06-03T16:16:56.601Z,14.20
2018-06-03T16:19:25.149Z,17.10
2018-06-03T16:21:53.609Z,16.30
2018-06-03T16:24:21.749Z,17.93
2018-06-03T16:26:50.165Z,12.20
2018-06-03T16:29:18.696Z,12.07
2018-06-03T16:31:47.144Z,13.60
2018-06-03T16:34:15.610Z,14.70
2018-06-03T16:36:44.237Z,15.07
2018-06-03T16:39:12.678Z,16.23
2018-06-03T16:41:41.241Z,14.70
2018-06-03T16:44:09.668Z,14.53
2018-06-03T16:46:38.127Z,14.97
2018-06-03T16:49:06.588Z,14.10
2018-06-03T16:51:34.989Z,13.20
2018-06-03T16:54:03.412Z,15.70
2018-06-03T16:56:31.792Z,13.70
2018-06-03T16:59:06.633Z,13.53
2018-06-03T17:01:36.118Z,14.77
2018-06-03T17:04:04.546Z,13.60
2018-06-03T17:06:33.045Z,17.03
2018-06-03T17:09:01.490Z,14.73
2018-06-03T17:11:30.043Z,14.43
2018-06-03T17:13:58.506Z,14.83
2018-06-03T17:16:27.952Z,15.47
2018-06-03T17:18:57.048Z,17.50
2018-06-03T17:21:25.941Z,14.60
2018-06-03T17:23:55.117Z,16.60
2018-06-03T17:26:24.147Z,17.80
2018-06-03T17:28:53.499Z,15.23
2018-06-03T17:31:22.476Z,18.23
2018-06-03T17:33:51.406Z,15.87
2018-06-03T17:36:20.509Z,14.03
2018-06-03T17:38:49.403Z,15.43
2018-06-03T17:41:18.419Z,17.07
2018-06-03T17:43:47.535Z,14.90
2018-06-03T17:46:16.339Z,14.20
2018-06-03T17:48:45.325Z,18.70
2018-06-03T17:51:14.057Z,14.83
2018-06-03T17:53:43.282Z,16.17
2018-06-03T17:56:11.764Z,14.83
2018-06-03T17:58:40.619Z,14.80
2018-06-03T18:01:09.395Z,15.33
2018-06-03T18:03:38.191Z,15.30
2018-06-03T18:06:06.706Z,14.77
2018-06-03T18:08:35.337Z,13.67
2018-06-03T18:11:03.780Z,15.03
2018-06-03T18:13:32.177Z,13.73
2018-06-03T18:16:00.746Z,13.00
2018-06-03T18:18:29.555Z,16.73
2018-06-03T18:20:57.981Z,15.17
2018-06-03T18:23:26.462Z,14.73
2018-06-03T18:25:55.182Z,13.33
2018-06-03T18:28:23.619Z,16.20
2018-06-03T18:30:52.106Z,14.73
2018-06-03T18:33:20.802Z,12.57
2018-06-03T18:35:49.201Z,13.80
2018-06-03T18:38:17.915Z,16.57
2018-06-03T18:40:46.453Z,17.77
2018-06-03T18:43:14.893Z,16.17
2018-06-03T18:45:43.526Z,14.43
2018-06-03T18:48:11.923Z,17.30
2018-06-03T18:50:40.016Z,15.80
2018-06-03T18:53:08.549Z,15.50
2018-06-03T18:55:36.993Z,12.37
2018-06-03T18:58:05.428Z,14.17
2018-06-03T19:00:33.721Z,11.83
2018-06-03T19:03:02.355Z,13.37
2018-06-03T19:05:30.773Z,13.93
2018-06-03T19:07:59.292Z,14.53
2018-06-03T19:10:27.842Z,13.57
2018-06-03T19:12:56.281Z,10.77
2018-06-03T19:15:24.834Z,12.97
2018-06-03T19:17:53.337Z,13.07
2018-06-03T19:20:22.171Z,11.90
2018-06-03T19:22:50.649Z,13.27
2018-06-03T19:25:19.065Z,13.67
2018-06-03T19:27:47.693Z,11.87
2018-06-03T19:30:16.306Z,13.60
2018-06-03T19:32:44.737Z,13.90
2018-06-03T19:35:13.177Z,19.73
2018-06-03T19:37:41.996Z,17.40
2018-06-03T19:40:10.556Z,15.50
2018-06-03T19:42:38.952Z,20.73
2018-06-03T19:45:07.569Z,14.40
2018-06-03T19:47:35.986Z,15.90
2018-06-03T19:50:04.458Z,15.20
2018-06-03T19:52:32.929Z,15.17
2018-06-03T19:55:01.088Z,17.30
2018-06-03T19:57:29.555Z,13.20
2018-06-03T19:59:58.034Z,15.50
2018-06-03T20:02:26.426Z,13.63
2018-06-03T20:04:55.177Z,12.90
2018-06-03T20:07:23.609Z,14.10
2018-06-03T20:09:51.997Z,14.80
2018-06-03T20:12:20.508Z,20.23
2018-06-03T20:14:48.967Z,14.60
2018-06-03T20:17:17.369Z,18.73
2018-06-03T20:19:45.789Z,15.43
2018-06-03T20:22:14.212Z,15.67
2018-06-03T20:24:42.703Z,18.73
2018-06-03T20:27:11.337Z,18.17
2018-06-03T20:29:39.578Z,18.13
2018-06-03T20:32:08.127Z,17.30
2018-06-03T20:34:36.645Z,16.63
2018-06-03T20:37:05.045Z,18.63
2018-06-03T20:39:33.552Z,18.63
2018-06-03T20:42:02.070Z,16.80
2018-06-03T20:44:30.458Z,17.63
2018-06-03T20:46:59.033Z,20.00
2018-06-03T20:49:27.486Z,20.53
2018-06-03T20:51:55.885Z,22.90
2018-06-03T20:54:24.276Z,24.50
2018-06-03T20:56:52.968Z,26.90
2018-06-03T20:59:21.399Z,23.77
2018-06-03T21:01:49.800Z,22.47
2018-06-03T21:04:18.220Z,24.70
2018-06-03T21:06:46.746Z,22.73
2018-06-03T21:09:15.255Z,24.93
2018-06-03T21:11:43.856Z,20.53
2018-06-03T21:14:12.549Z,23.97
2018-06-03T21:16:41.060Z,23.07
2018-06-03T21:19:09.465Z,27.43
2018-06-03T21:21:38.033Z,20.77
2018-06-03T21:24:06.467Z,25.83
2018-06-03T21:26:34.884Z,20.73
2018-06-03T21:29:03.285Z,22.27
2018-06-03T21:31:31.909Z,25.97
2018-06-03T21:34:01.405Z,23.57
2018-06-03T21:36:29.816Z,25.57
2018-06-03T21:38:58.247Z,22.10
2018-06-03T21:41:26.717Z,18.03
2018-06-03T21:43:55.123Z,23.60
2018-06-03T21:46:23.544Z,26.57
2018-06-03T21:48:52.018Z,23.47
2018-06-03T21:51:20.425Z,21.50
2018-06-03T21:53:48.848Z,26.17
2018-06-03T21:56:18.251Z,24.83
2018-06-03T21:58:46.634Z,24.60
2018-06-03T22:01:15.033Z,24.13
2018-06-03T22:03:43.458Z,29.23
2018-06-03T22:06:12.038Z,23.07
2018-06-03T22:08:40.767Z,25.57
2018-06-03T22:11:09.178Z,25.13
2018-06-03T22:13:37.560Z,24.97
2018-06-03T22:16:05.993Z,23.23
2018-06-03T22:18:34.452Z,23.83
2018-06-03T22:21:02.861Z,25.67
2018-06-03T22:23:31.524Z,19.47
2018-06-03T22:25:59.909Z,23.60
2018-06-03T22:28:28.361Z,21.93
2018-06-03T22:30:56.967Z,23.60
2018-06-03T22:33:25.451Z,20.23
2018-06-03T22:35:53.946Z,21.33
2018-06-03T22:38:22.560Z,22.00
2018-06-03T22:40:50.940Z,20.47
2018-06-03T22:43:19.404Z,20.27
2018-06-03T22:45:48.057Z,20.60
2018-06-03T22:48:16.450Z,24.70
2018-06-03T22:50:44.842Z,23.57
2018-06-03T22:53:13.489Z,19.90
2018-06-03T22:55:41.981Z,18.90
2018-06-03T22:58:10.404Z,22.70
2018-06-03T23:00:39.249Z,22.43
2018-06-03T23:03:12.995Z,26.97
2018-06-03T23:05:41.629Z,21.77
2018-06-03T23:08:10.009Z,22.27
2018-06-03T23:10:38.449Z,25.73
2018-06-03T23:13:07.218Z,23.27
2018-06-03T23:15:35.649Z,22.17
2018-06-03T23:18:04.057Z,23.63
2018-06-03T23:20:32.649Z,23.97
2018-06-03T23:23:01.045Z,29.03
2018-06-03T23:25:29.434Z,23.33
2018-06-03T23:27:58.006Z,24.37
2018-06-03T23:30:26.484Z,22.00
2018-06-03T23:32:54.858Z,26.63
2018-06-03T23:35:23.264Z,22.30
2018-06-03T23:37:51.742Z,24.07
2018-06-03T23:40:20.390Z,21.63
2018-06-03T23:42:48.789Z,28.93
2018-06-03T23:45:17.192Z,27.60
2018-06-03T23:47:45.987Z,28.93
2018-06-03T23:50:14.383Z,28.47
2018-06-03T23:52:42.735Z,24.83
2018-06-03T23:55:11.152Z,23.67
2018-06-03T23:57:39.650Z,28.80
